sensor_id;sensor_type;location;lat;lon;timestamp;P1;durP1;ratioP1;P2;durP2;ratioP2
14592;SDS011;7383;52.354;9.756;2023-08-31T00:01:36;5.63;;;5.22;;
14592;SDS011;7383;52.354;9.756;2023-08-31T00:04:03;5.88;;;5.45;;
14592;SDS011;7383;52.354;9.756;2023-08-31T00:06:32;5.40;;;5.07;;
14592;SDS011;7383;52.354;9.756;2023-08-31T00:08:58;5.47;;;5.15;;
14592;SDS011;7383;52.354;9.756;2023-08-31T00:11:25;5.72;;;5.32;;
14592;SDS011;7383;52.354;9.756;2023-08-31T00:13:52;5.43;;;5.03;;
14592;SDS011;7383;52.354;9.756;2023-08-31T00:16:20;5.15;;;4.75;;
14592;SDS011;7383;52.354;9.756;2023-08-31T00:18:52;5.78;;;5.35;;
14592;SDS011;7383;52.354;9.756;2023-08-31T00:21:19;5.53;;;5.07;;
14592;SDS011;7383;52.354;9.756;2023-08-31T00:23:45;5.90;;;5.40;;
14592;SDS011;7383;52.354;9.756;2023-08-31T00:26:12;5.15;;;4.75;;
14592;SDS011;7383;52.354;9.756;2023-08-31T00:28:38;4.95;;;4.60;;
14592;SDS011;7383;52.354;9.756;2023-08-31T00:31:07;4.90;;;4.55;;
14592;SDS011;7383;52.354;9.756;2023-08-31T00:33:34;4.82;;;4.43;;
14592;SDS011;7383;52.354;9.756;2023-08-31T00:36:02;4.40;;;4.10;;
14592;SDS011;7383;52.354;9.756;2023-08-31T00:38:29;4.72;;;4.32;;
14592;SDS011;7383;52.354;9.756;2023-08-31T00:40:55;4.78;;;4.47;;
14592;SDS011;7383;52.354;9.756;2023-08-31T00:43:22;4.60;;;4.30;;
14592;SDS011;7383;52.354;9.756;2023-08-31T00:45:50;4.18;;;3.88;;
14592;SDS011;7383;52.354;9.756;2023-08-31T00:48:19;4.47;;;4.18;;
14592;SDS011;7383;52.354;9.756;2023-08-31T00:50:46;4.22;;;3.92;;
14592;SDS011;7383;52.354;9.756;2023-08-31T00:53:14;4.35;;;3.97;;
14592;SDS011;7383;52.354;9.756;2023-08-31T00:55:42;4.15;;;3.85;;
14592;SDS011;7383;52.354;9.756;2023-08-31T00:58:10;4.10;;;3.80;;
14592;SDS011;7383;52.354;9.756;2023-08-31T01:00:40;4.13;;;3.88;;
14592;SDS011;7383;52.354;9.756;2023-08-31T01:03:15;4.65;;;4.25;;
14592;SDS011;7383;52.354;9.756;2023-08-31T01:05:52;3.88;;;3.58;;
14592;SDS011;7383;52.354;9.756;2023-08-31T01:08:27;3.92;;;3.60;;
14592;SDS011;7383;52.354;9.756;2023-08-31T01:11:01;4.35;;;4.05;;
14592;SDS011;7383;52.354;9.756;2023-08-31T01:13:38;4.10;;;3.83;;
14592;SDS011;7383;52.354;9.756;2023-08-31T01:16:07;4.15;;;3.85;;
14592;SDS011;7383;52.354;9.756;2023-08-31T01:18:35;4.13;;;3.83;;
14592;SDS011;7383;52.354;9.756;2023-08-31T01:21:06;4.93;;;4.53;;
14592;SDS011;7383;52.354;9.756;2023-08-31T01:23:49;4.28;;;3.97;;
14592;SDS011;7383;52.354;9.756;2023-08-31T01:26:18;4.35;;;4.05;;
14592;SDS011;7383;52.354;9.756;2023-08-31T01:28:44;4.90;;;4.50;;
14592;SDS011;7383;52.354;9.756;2023-08-31T01:31:11;4.18;;;3.78;;
14592;SDS011;7383;52.354;9.756;2023-08-31T01:33:38;4.25;;;3.95;;
14592;SDS011;7383;52.354;9.756;2023-08-31T01:36:12;4.78;;;4.45;;
14592;SDS011;7383;52.354;9.756;2023-08-31T01:38:42;4.63;;;4.22;;
14592;SDS011;7383;52.354;9.756;2023-08-31T01:41:16;5.07;;;4.68;;
14592;SDS011;7383;52.354;9.756;2023-08-31T01:43:46;4.80;;;4.40;;
14592;SDS011;7383;52.354;9.756;2023-08-31T01:46:14;4.60;;;4.30;;
14592;SDS011;7383;52.354;9.756;2023-08-31T01:48:42;5.03;;;4.63;;
14592;SDS011;7383;52.354;9.756;2023-08-31T01:51:10;4.65;;;4.35;;
14592;SDS011;7383;52.354;9.756;2023-08-31T01:53:37;4.15;;;3.85;;
14592;SDS011;7383;52.354;9.756;2023-08-31T01:56:04;4.65;;;4.35;;
14592;SDS011;7383;52.354;9.756;2023-08-31T01:58:32;4.85;;;4.45;;
14592;SDS011;7383;52.354;9.756;2023-08-31T02:00:59;4.05;;;3.75;;
14592;SDS011;7383;52.354;9.756;2023-08-31T02:03:26;4.45;;;4.15;;
14592;SDS011;7383;52.354;9.756;2023-08-31T02:05:53;5.13;;;4.50;;
14592;SDS011;7383;52.354;9.756;2023-08-31T02:08:20;4.55;;;4.25;;
14592;SDS011;7383;52.354;9.756;2023-08-31T02:10:46;4.80;;;4.40;;
14592;SDS011;7383;52.354;9.756;2023-08-31T02:13:13;5.00;;;4.53;;
14592;SDS011;7383;52.354;9.756;2023-08-31T02:15:41;4.60;;;4.30;;
14592;SDS011;7383;52.354;9.756;2023-08-31T02:18:08;4.50;;;4.20;;
14592;SDS011;7383;52.354;9.756;2023-08-31T02:20:35;3.90;;;3.70;;
14592;SDS011;7383;52.354;9.756;2023-08-31T02:23:01;4.72;;;4.32;;
14592;SDS011;7383;52.354;9.756;2023-08-31T02:25:28;4.35;;;3.95;;
14592;SDS011;7383;52.354;9.756;2023-08-31T02:27:54;4.30;;;4.00;;
14592;SDS011;7383;52.354;9.756;2023-08-31T02:30:21;5.05;;;4.65;;
14592;SDS011;7383;52.354;9.756;2023-08-31T02:32:49;4.18;;;3.88;;
14592;SDS011;7383;52.354;9.756;2023-08-31T02:35:15;4.35;;;4.05;;
14592;SDS011;7383;52.354;9.756;2023-08-31T02:37:42;4.78;;;4.38;;
14592;SDS011;7383;52.354;9.756;2023-08-31T02:40:09;4.20;;;3.90;;
14592;SDS011;7383;52.354;9.756;2023-08-31T02:42:36;5.10;;;4.70;;
14592;SDS011;7383;52.354;9.756;2023-08-31T02:45:03;5.35;;;4.68;;
14592;SDS011;7383;52.354;9.756;2023-08-31T02:47:31;4.80;;;4.45;;
14592;SDS011;7383;52.354;9.756;2023-08-31T02:49:59;4.65;;;4.30;;
14592;SDS011;7383;52.354;9.756;2023-08-31T02:52:25;4.93;;;4.53;;
14592;SDS011;7383;52.354;9.756;2023-08-31T02:54:52;4.32;;;4.03;;
14592;SDS011;7383;52.354;9.756;2023-08-31T02:57:18;4.22;;;3.92;;
14592;SDS011;7383;52.354;9.756;2023-08-31T02:59:49;4.97;;;4.55;;
14592;SDS011;7383;52.354;9.756;2023-08-31T03:02:15;4.45;;;4.15;;
14592;SDS011;7383;52.354;9.756;2023-08-31T03:04:42;5.18;;;4.78;;
14592;SDS011;7383;52.354;9.756;2023-08-31T03:07:10;4.93;;;4.53;;
14592;SDS011;7383;52.354;9.756;2023-08-31T03:09:38;4.95;;;4.50;;
14592;SDS011;7383;52.354;9.756;2023-08-31T03:12:05;5.38;;;5.07;;
14592;SDS011;7383;52.354;9.756;2023-08-31T03:14:32;5.00;;;4.60;;
14592;SDS011;7383;52.354;9.756;2023-08-31T03:16:58;4.43;;;4.03;;
14592;SDS011;7383;52.354;9.756;2023-08-31T03:19:25;5.38;;;4.95;;
14592;SDS011;7383;52.354;9.756;2023-08-31T03:21:51;4.28;;;3.97;;
14592;SDS011;7383;52.354;9.756;2023-08-31T03:24:19;4.70;;;4.30;;
14592;SDS011;7383;52.354;9.756;2023-08-31T03:26:46;5.95;;;4.53;;
14592;SDS011;7383;52.354;9.756;2023-08-31T03:29:12;5.20;;;4.80;;
14592;SDS011;7383;52.354;9.756;2023-08-31T03:31:39;5.03;;;4.63;;
14592;SDS011;7383;52.354;9.756;2023-08-31T03:34:06;4.65;;;4.30;;
14592;SDS011;7383;52.354;9.756;2023-08-31T03:36:32;4.55;;;4.25;;
14592;SDS011;7383;52.354;9.756;2023-08-31T03:38:59;5.05;;;4.65;;
14592;SDS011;7383;52.354;9.756;2023-08-31T03:41:29;4.88;;;4.50;;
14592;SDS011;7383;52.354;9.756;2023-08-31T03:43:55;5.10;;;4.55;;
14592;SDS011;7383;52.354;9.756;2023-08-31T03:46:22;4.50;;;4.20;;
14592;SDS011;7383;52.354;9.756;2023-08-31T03:48:49;4.70;;;4.25;;
14592;SDS011;7383;52.354;9.756;2023-08-31T03:51:16;4.20;;;3.85;;
14592;SDS011;7383;52.354;9.756;2023-08-31T03:53:43;4.25;;;3.95;;
14592;SDS011;7383;52.354;9.756;2023-08-31T03:56:10;3.67;;;3.47;;
14592;SDS011;7383;52.354;9.756;2023-08-31T03:58:38;4.22;;;3.92;;
14592;SDS011;7383;52.354;9.756;2023-08-31T04:01:05;4.50;;;4.10;;
14592;SDS011;7383;52.354;9.756;2023-08-31T04:03:32;4.55;;;4.05;;
14592;SDS011;7383;52.354;9.756;2023-08-31T04:05:58;4.18;;;3.83;;
14592;SDS011;7383;52.354;9.756;2023-08-31T04:08:25;3.95;;;3.65;;
14592;SDS011;7383;52.354;9.756;2023-08-31T04:10:52;4.18;;;3.88;;
14592;SDS011;7383;52.354;9.756;2023-08-31T04:13:18;3.90;;;3.60;;
14592;SDS011;7383;52.354;9.756;2023-08-31T04:15:46;3.50;;;3.22;;
14592;SDS011;7383;52.354;9.756;2023-08-31T04:18:13;4.10;;;3.80;;
14592;SDS011;7383;52.354;9.756;2023-08-31T04:20:46;3.80;;;3.58;;
14592;SDS011;7383;52.354;9.756;2023-08-31T04:23:14;3.40;;;3.13;;
14592;SDS011;7383;52.354;9.756;2023-08-31T04:25:41;3.92;;;3.63;;
14592;SDS011;7383;52.354;9.756;2023-08-31T04:28:07;3.88;;;3.58;;
14592;SDS011;7383;52.354;9.756;2023-08-31T04:30:34;4.50;;;4.10;;
14592;SDS011;7383;52.354;9.756;2023-08-31T04:33:02;4.07;;;3.78;;
14592;SDS011;7383;52.354;9.756;2023-08-31T04:35:29;3.63;;;3.40;;
14592;SDS011;7383;52.354;9.756;2023-08-31T04:37:56;3.72;;;3.42;;
14592;SDS011;7383;52.354;9.756;2023-08-31T04:40:22;4.40;;;4.00;;
14592;SDS011;7383;52.354;9.756;2023-08-31T04:42:50;3.83;;;3.55;;
14592;SDS011;7383;52.354;9.756;2023-08-31T04:45:17;4.30;;;4.00;;
14592;SDS011;7383;52.354;9.756;2023-08-31T04:47:46;4.75;;;4.43;;
14592;SDS011;7383;52.354;9.756;2023-08-31T04:50:15;4.68;;;4.22;;
14592;SDS011;7383;52.354;9.756;2023-08-31T04:52:42;4.72;;;4.38;;
14592;SDS011;7383;52.354;9.756;2023-08-31T04:55:09;4.50;;;4.20;;
14592;SDS011;7383;52.354;9.756;2023-08-31T04:57:38;5.93;;;4.65;;
14592;SDS011;7383;52.354;9.756;2023-08-31T05:00:05;5.38;;;4.97;;
14592;SDS011;7383;52.354;9.756;2023-08-31T05:02:34;5.50;;;5.10;;
14592;SDS011;7383;52.354;9.756;2023-08-31T05:05:00;5.72;;;5.10;;
14592;SDS011;7383;52.354;9.756;2023-08-31T05:07:29;5.78;;;5.25;;
14592;SDS011;7383;52.354;9.756;2023-08-31T05:09:55;6.13;;;5.63;;
14592;SDS011;7383;52.354;9.756;2023-08-31T05:12:22;6.20;;;5.70;;
14592;SDS011;7383;52.354;9.756;2023-08-31T05:14:48;5.93;;;5.43;;
14592;SDS011;7383;52.354;9.756;2023-08-31T05:17:15;6.50;;;6.03;;
14592;SDS011;7383;52.354;9.756;2023-08-31T05:19:41;6.57;;;5.97;;
14592;SDS011;7383;52.354;9.756;2023-08-31T05:22:08;6.15;;;5.65;;
14592;SDS011;7383;52.354;9.756;2023-08-31T05:24:36;6.78;;;6.28;;
14592;SDS011;7383;52.354;9.756;2023-08-31T05:27:02;6.78;;;6.18;;
14592;SDS011;7383;52.354;9.756;2023-08-31T05:29:29;6.75;;;6.15;;
14592;SDS011;7383;52.354;9.756;2023-08-31T05:31:56;6.93;;;6.32;;
14592;SDS011;7383;52.354;9.756;2023-08-31T05:34:24;6.57;;;6.07;;
14592;SDS011;7383;52.354;9.756;2023-08-31T05:36:51;6.53;;;6.00;;
14592;SDS011;7383;52.354;9.756;2023-08-31T05:39:18;7.22;;;6.72;;
14592;SDS011;7383;52.354;9.756;2023-08-31T05:41:46;8.00;;;7.30;;
14592;SDS011;7383;52.354;9.756;2023-08-31T05:44:12;9.10;;;8.30;;
14592;SDS011;7383;52.354;9.756;2023-08-31T05:46:39;7.35;;;6.85;;
14592;SDS011;7383;52.354;9.756;2023-08-31T05:49:06;8.40;;;7.70;;
14592;SDS011;7383;52.354;9.756;2023-08-31T05:51:33;8.77;;;8.07;;
14592;SDS011;7383;52.354;9.756;2023-08-31T05:53:59;8.40;;;7.80;;
14592;SDS011;7383;52.354;9.756;2023-08-31T05:56:26;8.23;;;7.53;;
14592;SDS011;7383;52.354;9.756;2023-08-31T05:58:54;8.77;;;8.05;;
14592;SDS011;7383;52.354;9.756;2023-08-31T06:01:21;8.27;;;7.68;;
14592;SDS011;7383;52.354;9.756;2023-08-31T06:03:48;8.65;;;8.05;;
14592;SDS011;7383;52.354;9.756;2023-08-31T06:06:14;9.93;;;9.10;;
14592;SDS011;7383;52.354;9.756;2023-08-31T06:08:41;9.60;;;8.82;;
14592;SDS011;7383;52.354;9.756;2023-08-31T06:11:08;9.10;;;8.35;;
14592;SDS011;7383;52.354;9.756;2023-08-31T06:13:35;8.27;;;7.68;;
14592;SDS011;7383;52.354;9.756;2023-08-31T06:16:05;9.02;;;8.30;;
14592;SDS011;7383;52.354;9.756;2023-08-31T06:18:31;8.95;;;8.20;;
14592;SDS011;7383;52.354;9.756;2023-08-31T06:20:58;11.98;;;10.88;;
14592;SDS011;7383;52.354;9.756;2023-08-31T06:23:25;9.98;;;9.23;;
14592;SDS011;7383;52.354;9.756;2023-08-31T06:25:51;9.52;;;8.82;;
14592;SDS011;7383;52.354;9.756;2023-08-31T06:28:18;9.25;;;8.50;;
14592;SDS011;7383;52.354;9.756;2023-08-31T06:30:44;8.05;;;7.43;;
14592;SDS011;7383;52.354;9.756;2023-08-31T06:33:15;9.02;;;8.23;;
14592;SDS011;7383;52.354;9.756;2023-08-31T06:35:43;8.15;;;7.60;;
14592;SDS011;7383;52.354;9.756;2023-08-31T06:38:11;8.25;;;7.63;;
14592;SDS011;7383;52.354;9.756;2023-08-31T06:40:38;11.40;;;10.50;;
14592;SDS011;7383;52.354;9.756;2023-08-31T06:43:04;10.52;;;9.77;;
14592;SDS011;7383;52.354;9.756;2023-08-31T06:45:31;10.40;;;9.50;;
14592;SDS011;7383;52.354;9.756;2023-08-31T06:47:59;10.73;;;9.93;;
14592;SDS011;7383;52.354;9.756;2023-08-31T06:50:27;10.55;;;9.75;;
14592;SDS011;7383;52.354;9.756;2023-08-31T06:52:53;10.38;;;9.55;;
14592;SDS011;7383;52.354;9.756;2023-08-31T06:55:20;9.35;;;8.65;;
14592;SDS011;7383;52.354;9.756;2023-08-31T06:57:46;9.10;;;8.30;;
14592;SDS011;7383;52.354;9.756;2023-08-31T07:00:13;9.13;;;8.43;;
14592;SDS011;7383;52.354;9.756;2023-08-31T07:02:40;9.05;;;8.35;;
14592;SDS011;7383;52.354;9.756;2023-08-31T07:05:07;10.20;;;9.40;;
14592;SDS011;7383;52.354;9.756;2023-08-31T07:07:35;9.85;;;9.07;;
14592;SDS011;7383;52.354;9.756;2023-08-31T07:10:02;10.18;;;9.27;;
14592;SDS011;7383;52.354;9.756;2023-08-31T07:12:30;11.77;;;10.70;;
14592;SDS011;7383;52.354;9.756;2023-08-31T07:14:57;9.68;;;8.98;;
14592;SDS011;7383;52.354;9.756;2023-08-31T07:17:23;9.45;;;8.65;;
14592;SDS011;7383;52.354;9.756;2023-08-31T07:19:50;8.60;;;7.90;;
14592;SDS011;7383;52.354;9.756;2023-08-31T07:22:16;10.27;;;9.48;;
14592;SDS011;7383;52.354;9.756;2023-08-31T07:24:44;10.65;;;9.75;;
14592;SDS011;7383;52.354;9.756;2023-08-31T07:27:11;8.57;;;7.88;;
14592;SDS011;7383;52.354;9.756;2023-08-31T07:29:38;10.63;;;9.55;;
14592;SDS011;7383;52.354;9.756;2023-08-31T07:32:04;8.57;;;7.97;;
14592;SDS011;7383;52.354;9.756;2023-08-31T07:34:31;9.32;;;8.63;;
14592;SDS011;7383;52.354;9.756;2023-08-31T07:36:58;9.90;;;9.10;;
14592;SDS011;7383;52.354;9.756;2023-08-31T07:39:25;10.30;;;9.40;;
14592;SDS011;7383;52.354;9.756;2023-08-31T07:41:54;8.10;;;7.50;;
14592;SDS011;7383;52.354;9.756;2023-08-31T07:44:21;7.55;;;7.05;;
14592;SDS011;7383;52.354;9.756;2023-08-31T07:46:47;6.55;;;6.15;;
14592;SDS011;7383;52.354;9.756;2023-08-31T07:49:16;7.60;;;7.00;;
14592;SDS011;7383;52.354;9.756;2023-08-31T07:51:43;8.15;;;7.60;;
14592;SDS011;7383;52.354;9.756;2023-08-31T07:54:09;7.25;;;6.75;;
14592;SDS011;7383;52.354;9.756;2023-08-31T07:56:36;7.05;;;6.55;;
14592;SDS011;7383;52.354;9.756;2023-08-31T07:59:03;6.55;;;6.05;;
14592;SDS011;7383;52.354;9.756;2023-08-31T08:01:30;7.07;;;6.57;;
14592;SDS011;7383;52.354;9.756;2023-08-31T08:03:56;6.38;;;5.88;;
14592;SDS011;7383;52.354;9.756;2023-08-31T08:06:23;5.93;;;5.53;;
14592;SDS011;7383;52.354;9.756;2023-08-31T08:08:49;5.60;;;5.25;;
14592;SDS011;7383;52.354;9.756;2023-08-31T08:11:16;5.97;;;5.57;;
14592;SDS011;7383;52.354;9.756;2023-08-31T08:13:43;6.00;;;5.60;;
14592;SDS011;7383;52.354;9.756;2023-08-31T08:16:11;5.97;;;5.57;;
14592;SDS011;7383;52.354;9.756;2023-08-31T08:18:37;5.97;;;5.55;;
14592;SDS011;7383;52.354;9.756;2023-08-31T08:21:04;5.57;;;5.18;;
14592;SDS011;7383;52.354;9.756;2023-08-31T08:23:30;5.20;;;4.85;;
14592;SDS011;7383;52.354;9.756;2023-08-31T08:25:57;6.60;;;6.10;;
14592;SDS011;7383;52.354;9.756;2023-08-31T08:28:24;6.07;;;5.68;;
14592;SDS011;7383;52.354;9.756;2023-08-31T08:30:51;5.57;;;5.20;;
14592;SDS011;7383;52.354;9.756;2023-08-31T08:33:21;5.50;;;5.10;;
14592;SDS011;7383;52.354;9.756;2023-08-31T08:35:47;5.22;;;4.82;;
14592;SDS011;7383;52.354;9.756;2023-08-31T08:38:14;5.20;;;4.80;;
14592;SDS011;7383;52.354;9.756;2023-08-31T08:40:41;4.65;;;4.28;;
14592;SDS011;7383;52.354;9.756;2023-08-31T08:43:07;5.15;;;4.75;;
14592;SDS011;7383;52.354;9.756;2023-08-31T08:45:35;5.00;;;4.70;;
14592;SDS011;7383;52.354;9.756;2023-08-31T08:48:04;5.63;;;5.13;;
14592;SDS011;7383;52.354;9.756;2023-08-31T08:50:33;5.05;;;4.45;;
14592;SDS011;7383;52.354;9.756;2023-08-31T08:53:01;4.60;;;4.30;;
14592;SDS011;7383;52.354;9.756;2023-08-31T08:55:28;5.13;;;4.72;;
14592;SDS011;7383;52.354;9.756;2023-08-31T08:57:54;4.35;;;4.05;;
14592;SDS011;7383;52.354;9.756;2023-08-31T09:00:22;4.57;;;4.28;;
14592;SDS011;7383;52.354;9.756;2023-08-31T09:02:48;4.88;;;4.55;;
14592;SDS011;7383;52.354;9.756;2023-08-31T09:05:15;4.38;;;4.07;;
14592;SDS011;7383;52.354;9.756;2023-08-31T09:10:32;4.78;;;4.47;;
14592;SDS011;7383;52.354;9.756;2023-08-31T09:13:00;4.18;;;3.95;;
14592;SDS011;7383;52.354;9.756;2023-08-31T09:15:35;5.70;;;5.30;;
14592;SDS011;7383;52.354;9.756;2023-08-31T09:18:03;6.00;;;5.35;;
14592;SDS011;7383;52.354;9.756;2023-08-31T09:20:29;4.70;;;4.40;;
14592;SDS011;7383;52.354;9.756;2023-08-31T09:22:56;4.78;;;4.47;;
14592;SDS011;7383;52.354;9.756;2023-08-31T09:25:24;5.18;;;4.68;;
14592;SDS011;7383;52.354;9.756;2023-08-31T09:27:50;4.78;;;4.40;;
14592;SDS011;7383;52.354;9.756;2023-08-31T09:30:17;3.90;;;3.70;;
14592;SDS011;7383;52.354;9.756;2023-08-31T09:32:44;4.28;;;4.07;;
14592;SDS011;7383;52.354;9.756;2023-08-31T09:35:17;5.03;;;3.95;;
14592;SDS011;7383;52.354;9.756;2023-08-31T09:37:47;4.68;;;4.38;;
14592;SDS011;7383;52.354;9.756;2023-08-31T09:40:21;3.97;;;3.67;;
14592;SDS011;7383;52.354;9.756;2023-08-31T09:42:50;3.53;;;3.30;;
14592;SDS011;7383;52.354;9.756;2023-08-31T09:45:17;4.50;;;4.20;;
14592;SDS011;7383;52.354;9.756;2023-08-31T09:47:44;4.00;;;3.80;;
14592;SDS011;7383;52.354;9.756;2023-08-31T09:50:11;3.83;;;3.63;;
14592;SDS011;7383;52.354;9.756;2023-08-31T09:52:37;4.32;;;4.13;;
14592;SDS011;7383;52.354;9.756;2023-08-31T09:55:06;5.03;;;4.63;;
14592;SDS011;7383;52.354;9.756;2023-08-31T09:57:34;4.10;;;3.90;;
14592;SDS011;7383;52.354;9.756;2023-08-31T10:00:03;3.65;;;3.45;;
14592;SDS011;7383;52.354;9.756;2023-08-31T10:02:31;3.70;;;3.50;;
14592;SDS011;7383;52.354;9.756;2023-08-31T10:04:59;3.80;;;3.60;;
14592;SDS011;7383;52.354;9.756;2023-08-31T10:07:26;3.78;;;3.50;;
14592;SDS011;7383;52.354;9.756;2023-08-31T10:09:53;4.13;;;3.83;;
14592;SDS011;7383;52.354;9.756;2023-08-31T10:12:22;4.10;;;3.90;;
14592;SDS011;7383;52.354;9.756;2023-08-31T10:14:50;3.67;;;3.47;;
14592;SDS011;7383;52.354;9.756;2023-08-31T10:17:19;3.85;;;3.55;;
14592;SDS011;7383;52.354;9.756;2023-08-31T10:19:46;3.75;;;3.53;;
14592;SDS011;7383;52.354;9.756;2023-08-31T10:22:13;3.75;;;3.55;;
14592;SDS011;7383;52.354;9.756;2023-08-31T10:24:58;3.63;;;3.42;;
14592;SDS011;7383;52.354;9.756;2023-08-31T10:27:26;3.33;;;3.03;;
14592;SDS011;7383;52.354;9.756;2023-08-31T10:29:53;3.28;;;3.08;;
14592;SDS011;7383;52.354;9.756;2023-08-31T10:32:23;3.25;;;3.05;;
14592;SDS011;7383;52.354;9.756;2023-08-31T10:37:35;4.20;;;3.90;;
14592;SDS011;7383;52.354;9.756;2023-08-31T10:40:08;3.40;;;3.20;;
14592;SDS011;7383;52.354;9.756;2023-08-31T10:42:43;4.10;;;3.88;;
14592;SDS011;7383;52.354;9.756;2023-08-31T10:45:12;3.30;;;3.10;;
14592;SDS011;7383;52.354;9.756;2023-08-31T10:47:41;4.03;;;3.70;;
14592;SDS011;7383;52.354;9.756;2023-08-31T10:52:51;4.00;;;3.70;;
14592;SDS011;7383;52.354;9.756;2023-08-31T10:55:18;3.40;;;3.20;;
14592;SDS011;7383;52.354;9.756;2023-08-31T10:57:49;4.65;;;3.67;;
14592;SDS011;7383;52.354;9.756;2023-08-31T11:00:15;3.42;;;3.22;;
14592;SDS011;7383;52.354;9.756;2023-08-31T11:03:17;3.75;;;3.50;;
14592;SDS011;7383;52.354;9.756;2023-08-31T11:05:50;3.83;;;3.40;;
14592;SDS011;7383;52.354;9.756;2023-08-31T11:08:20;3.95;;;3.65;;
14592;SDS011;7383;52.354;9.756;2023-08-31T11:10:47;3.58;;;3.38;;
14592;SDS011;7383;52.354;9.756;2023-08-31T11:13:15;3.45;;;3.25;;
14592;SDS011;7383;52.354;9.756;2023-08-31T11:15:44;3.13;;;2.92;;
14592;SDS011;7383;52.354;9.756;2023-08-31T11:18:12;3.50;;;3.20;;
14592;SDS011;7383;52.354;9.756;2023-08-31T11:20:41;3.28;;;2.97;;
14592;SDS011;7383;52.354;9.756;2023-08-31T11:23:08;2.95;;;2.65;;
14592;SDS011;7383;52.354;9.756;2023-08-31T11:25:35;2.95;;;2.65;;
14592;SDS011;7383;52.354;9.756;2023-08-31T11:28:02;2.80;;;2.60;;
14592;SDS011;7383;52.354;9.756;2023-08-31T11:30:32;3.10;;;2.90;;
14592;SDS011;7383;52.354;9.756;2023-08-31T11:33:01;2.50;;;2.40;;
14592;SDS011;7383;52.354;9.756;2023-08-31T11:35:31;3.00;;;2.80;;
14592;SDS011;7383;52.354;9.756;2023-08-31T11:38:01;2.95;;;2.75;;
14592;SDS011;7383;52.354;9.756;2023-08-31T11:40:29;2.80;;;2.60;;
14592;SDS011;7383;52.354;9.756;2023-08-31T11:42:56;2.45;;;2.28;;
14592;SDS011;7383;52.354;9.756;2023-08-31T11:45:25;2.50;;;2.40;;
14592;SDS011;7383;52.354;9.756;2023-08-31T11:47:52;2.55;;;2.45;;
14592;SDS011;7383;52.354;9.756;2023-08-31T11:50:20;2.50;;;2.40;;
14592;SDS011;7383;52.354;9.756;2023-08-31T11:52:48;2.30;;;2.20;;
14592;SDS011;7383;52.354;9.756;2023-08-31T11:55:17;2.60;;;2.50;;
14592;SDS011;7383;52.354;9.756;2023-08-31T11:57:47;2.35;;;2.15;;
14592;SDS011;7383;52.354;9.756;2023-08-31T12:00:24;1.90;;;1.80;;
14592;SDS011;7383;52.354;9.756;2023-08-31T12:02:55;1.90;;;1.80;;
14592;SDS011;7383;52.354;9.756;2023-08-31T12:05:23;2.17;;;1.98;;
14592;SDS011;7383;52.354;9.756;2023-08-31T12:07:49;1.70;;;1.60;;
14592;SDS011;7383;52.354;9.756;2023-08-31T12:10:19;1.73;;;1.67;;
14592;SDS011;7383;52.354;9.756;2023-08-31T12:12:45;1.70;;;1.60;;
14592;SDS011;7383;52.354;9.756;2023-08-31T12:15:12;1.70;;;1.60;;
14592;SDS011;7383;52.354;9.756;2023-08-31T12:17:39;1.45;;;1.40;;
14592;SDS011;7383;52.354;9.756;2023-08-31T12:20:06;1.45;;;1.35;;
14592;SDS011;7383;52.354;9.756;2023-08-31T12:22:35;1.33;;;1.30;;
14592;SDS011;7383;52.354;9.756;2023-08-31T12:25:03;1.55;;;1.40;;
14592;SDS011;7383;52.354;9.756;2023-08-31T12:27:32;1.30;;;1.30;;
14592;SDS011;7383;52.354;9.756;2023-08-31T12:29:58;1.40;;;1.40;;
14592;SDS011;7383;52.354;9.756;2023-08-31T12:32:24;1.30;;;1.20;;
14592;SDS011;7383;52.354;9.756;2023-08-31T12:34:51;1.70;;;1.60;;
14592;SDS011;7383;52.354;9.756;2023-08-31T12:37:18;1.17;;;1.10;;
14592;SDS011;7383;52.354;9.756;2023-08-31T12:39:44;1.45;;;1.35;;
14592;SDS011;7383;52.354;9.756;2023-08-31T12:42:11;1.30;;;1.20;;
14592;SDS011;7383;52.354;9.756;2023-08-31T12:44:40;1.67;;;1.20;;
14592;SDS011;7383;52.354;9.756;2023-08-31T12:47:06;1.10;;;1.10;;
14592;SDS011;7383;52.354;9.756;2023-08-31T12:49:33;1.92;;;1.42;;
14592;SDS011;7383;52.354;9.756;2023-08-31T12:52:00;1.40;;;1.30;;
14592;SDS011;7383;52.354;9.756;2023-08-31T12:54:28;1.02;;;1.02;;
14592;SDS011;7383;52.354;9.756;2023-08-31T12:56:54;1.20;;;1.20;;
14592;SDS011;7383;52.354;9.756;2023-08-31T12:59:20;1.20;;;1.10;;
14592;SDS011;7383;52.354;9.756;2023-08-31T13:01:48;1.63;;;1.10;;
14592;SDS011;7383;52.354;9.756;2023-08-31T13:04:15;1.17;;;0.82;;
14592;SDS011;7383;52.354;9.756;2023-08-31T13:06:41;1.30;;;1.17;;
14592;SDS011;7383;52.354;9.756;2023-08-31T13:09:08;0.95;;;0.95;;
14592;SDS011;7383;52.354;9.756;2023-08-31T13:11:34;0.88;;;0.88;;
14592;SDS011;7383;52.354;9.756;2023-08-31T13:14:01;1.40;;;1.30;;
14592;SDS011;7383;52.354;9.756;2023-08-31T13:16:27;1.20;;;1.10;;
14592;SDS011;7383;52.354;9.756;2023-08-31T13:18:55;1.58;;;1.30;;
14592;SDS011;7383;52.354;9.756;2023-08-31T13:21:22;1.77;;;1.63;;
14592;SDS011;7383;52.354;9.756;2023-08-31T13:23:48;1.42;;;1.33;;
14592;SDS011;7383;52.354;9.756;2023-08-31T13:26:15;1.45;;;1.35;;
14592;SDS011;7383;52.354;9.756;2023-08-31T13:28:41;0.95;;;0.95;;
14592;SDS011;7383;52.354;9.756;2023-08-31T13:31:08;1.10;;;1.00;;
14592;SDS011;7383;52.354;9.756;2023-08-31T13:33:35;0.60;;;0.60;;
14592;SDS011;7383;52.354;9.756;2023-08-31T13:36:03;0.70;;;0.70;;
14592;SDS011;7383;52.354;9.756;2023-08-31T13:38:29;0.60;;;0.50;;
14592;SDS011;7383;52.354;9.756;2023-08-31T13:40:56;1.00;;;0.70;;
14592;SDS011;7383;52.354;9.756;2023-08-31T13:43:22;1.27;;;0.85;;
14592;SDS011;7383;52.354;9.756;2023-08-31T13:45:49;0.60;;;0.60;;
14592;SDS011;7383;52.354;9.756;2023-08-31T13:48:16;0.77;;;0.70;;
14592;SDS011;7383;52.354;9.756;2023-08-31T13:50:43;0.65;;;0.60;;
14592;SDS011;7383;52.354;9.756;2023-08-31T13:53:10;1.10;;;1.10;;
14592;SDS011;7383;52.354;9.756;2023-08-31T13:55:37;0.70;;;0.70;;
14592;SDS011;7383;52.354;9.756;2023-08-31T13:58:04;0.60;;;0.60;;
14592;SDS011;7383;52.354;9.756;2023-08-31T14:00:32;0.95;;;0.60;;
14592;SDS011;7383;52.354;9.756;2023-08-31T14:02:58;0.50;;;0.50;;
14592;SDS011;7383;52.354;9.756;2023-08-31T14:05:28;2.55;;;0.70;;
14592;SDS011;7383;52.354;9.756;2023-08-31T14:07:54;0.60;;;0.52;;
14592;SDS011;7383;52.354;9.756;2023-08-31T14:10:22;0.68;;;0.68;;
14592;SDS011;7383;52.354;9.756;2023-08-31T14:12:49;1.20;;;0.70;;
14592;SDS011;7383;52.354;9.756;2023-08-31T14:15:16;0.50;;;0.50;;
14592;SDS011;7383;52.354;9.756;2023-08-31T14:17:43;0.70;;;0.40;;
14592;SDS011;7383;52.354;9.756;2023-08-31T14:20:10;0.60;;;0.60;;
14592;SDS011;7383;52.354;9.756;2023-08-31T14:22:37;0.57;;;0.57;;
14592;SDS011;7383;52.354;9.756;2023-08-31T14:25:08;0.40;;;0.40;;
14592;SDS011;7383;52.354;9.756;2023-08-31T14:27:37;0.40;;;0.40;;
14592;SDS011;7383;52.354;9.756;2023-08-31T14:30:04;0.45;;;0.45;;
14592;SDS011;7383;52.354;9.756;2023-08-31T14:32:32;0.57;;;0.40;;
14592;SDS011;7383;52.354;9.756;2023-08-31T14:35:00;0.73;;;0.68;;
14592;SDS011;7383;52.354;9.756;2023-08-31T14:37:26;0.40;;;0.40;;
14592;SDS011;7383;52.354;9.756;2023-08-31T14:39:53;0.57;;;0.47;;
14592;SDS011;7383;52.354;9.756;2023-08-31T14:42:20;2.63;;;2.42;;
14592;SDS011;7383;52.354;9.756;2023-08-31T14:44:48;0.90;;;0.90;;
14592;SDS011;7383;52.354;9.756;2023-08-31T14:47:15;1.20;;;1.10;;
14592;SDS011;7383;52.354;9.756;2023-08-31T14:49:41;1.30;;;1.25;;
14592;SDS011;7383;52.354;9.756;2023-08-31T14:52:08;0.60;;;0.60;;
14592;SDS011;7383;52.354;9.756;2023-08-31T14:54:35;0.50;;;0.50;;
14592;SDS011;7383;52.354;9.756;2023-08-31T14:57:01;0.90;;;0.60;;
14592;SDS011;7383;52.354;9.756;2023-08-31T14:59:33;0.80;;;0.60;;
14592;SDS011;7383;52.354;9.756;2023-08-31T15:02:00;0.85;;;0.77;;
14592;SDS011;7383;52.354;9.756;2023-08-31T15:04:30;0.88;;;0.60;;
14592;SDS011;7383;52.354;9.756;2023-08-31T15:06:56;0.60;;;0.60;;
14592;SDS011;7383;52.354;9.756;2023-08-31T15:09:23;1.20;;;0.80;;
14592;SDS011;7383;52.354;9.756;2023-08-31T15:11:49;0.60;;;0.60;;